This is the latest recevied weather packets stored in our database for station/object KF7SOJ. If no packets are shown the sender has not sent any weather packets the latest 10 day(s).
| Time | Temp. | Humidity | Pressure | Rain* | Wind** | Luminosity | Snow |
|---|---|---|---|---|---|---|---|
| 1788347434 | 16.11° C | 57% | 927.2 hPa | 0 mm | - | 0 W/m² | - |
| 1788347130 | 16.11° C | 57% | 927.2 hPa | 0 mm | - | 0 W/m² | - |
| 1788346825 | 16.11° C | 57% | 926.9 hPa | 0 mm | - | 0 W/m² | - |
| 1788346525 | 16.11° C | 57% | 926.9 hPa | 0 mm | - | 0 W/m² | - |
| 1788346220 | 16.11° C | 56% | 927 hPa | 0 mm | - | 0 W/m² | - |
| 1788345916 | 16.67° C | 56% | 927.1 hPa | 0 mm | - | 0 W/m² | - |
| 1788345615 | 15.56° C | 57% | 927.3 hPa | 0 mm | - | 0 W/m² | - |
| 1788345311 | 13.89° C | 62% | 927.3 hPa | 0 mm | - | 0 W/m² | - |
| 1788345006 | 13.89° C | 64% | 927.4 hPa | 0 mm | - | 0 W/m² | - |
| 1788344703 | 15° C | 58% | 927.6 hPa | 0 mm | - | 0 W/m² | - |
| 1788344399 | 15.56° C | 56% | 927.3 hPa | 0 mm | - | 0 W/m² | - |
| 1788344099 | 14.44° C | 59% | 927.3 hPa | 0 mm | - | 0 W/m² | - |
| 1788343798 | 13.89° C | 62% | 927.5 hPa | 0 mm | - | 0 W/m² | - |
| 1788343493 | 13.89° C | 64% | 927.6 hPa | 0 mm | - | 0 W/m² | - |
| 1788343188 | 13.33° C | 65% | 927.2 hPa | 0 mm | - | 0 W/m² | - |
| 1788342883 | 13.33° C | 66% | 927 hPa | 0 mm | - | 0 W/m² | - |
| 1788342581 | 13.33° C | 66% | 926.9 hPa | 0 mm | - | 0 W/m² | - |
| 1788342278 | 13.89° C | 64% | 926.9 hPa | 0 mm | - | 0 W/m² | - |
| 1788341978 | 13.89° C | 62% | 926.9 hPa | 0 mm | - | 0 W/m² | - |
| 1788341673 | 13.89° C | 62% | 926.8 hPa | 0 mm | - | 0 W/m² | - |
| 1788341371 | 13.89° C | 63% | 926.9 hPa | 0 mm | - | 0 W/m² | - |
| 1788341068 | 13.89° C | 63% | 926.9 hPa | 0 mm | - | 0 W/m² | - |
| 1788340767 | 14.44° C | 61% | 927 hPa | 0 mm | - | 0 W/m² | - |
| 1788340463 | 14.44° C | 61% | 926.8 hPa | 0 mm | - | 0 W/m² | - |
| 1788340160 | 14.44° C | 62% | 926.8 hPa | 0 mm | - | 0 W/m² | - |
* Rain latest hour (hover to see other rain measurements)
** Current wind speed in m/s (hover to see current wind gust speed)